createdAt,value
2017-10-20T00:01:54.582Z,2.60
2017-10-20T00:04:22.188Z,2.10
2017-10-20T00:06:49.710Z,2.50
2017-10-20T00:09:17.977Z,2.10
2017-10-20T00:11:46.268Z,1.97
2017-10-20T00:14:14.034Z,2.17
2017-10-20T00:16:41.552Z,2.13
2017-10-20T00:19:09.052Z,2.13
2017-10-20T00:21:36.600Z,2.20
2017-10-20T00:24:04.273Z,2.33
2017-10-20T00:26:31.923Z,2.43
2017-10-20T00:28:59.583Z,2.10
2017-10-20T00:31:27.083Z,2.67
2017-10-20T00:33:54.579Z,2.00
2017-10-20T00:36:22.247Z,2.33
2017-10-20T00:38:49.806Z,2.40
2017-10-20T00:41:17.482Z,2.13
2017-10-20T00:43:44.988Z,2.10
2017-10-20T00:46:12.488Z,2.17
2017-10-20T00:48:40.047Z,2.10
2017-10-20T00:51:07.671Z,2.00
2017-10-20T00:53:35.196Z,2.10
2017-10-20T00:56:02.696Z,2.20
2017-10-20T00:58:30.221Z,2.13
2017-10-20T01:00:57.936Z,1.80
2017-10-20T01:03:25.471Z,2.47
2017-10-20T01:05:52.974Z,2.00
2017-10-20T01:08:20.484Z,2.20
2017-10-20T01:10:48.125Z,2.43
2017-10-20T01:13:15.808Z,2.13
2017-10-20T01:15:43.300Z,2.30
2017-10-20T01:18:10.801Z,1.77
2017-10-20T01:20:38.311Z,2.37
2017-10-20T01:23:05.812Z,2.10
2017-10-20T01:25:33.343Z,2.53
2017-10-20T01:28:00.852Z,2.43
2017-10-20T01:30:28.346Z,2.17
2017-10-20T01:32:55.854Z,2.53
2017-10-20T01:35:23.376Z,2.13
2017-10-20T01:37:51.643Z,2.10
2017-10-20T01:40:19.936Z,1.83
2017-10-20T01:42:47.500Z,2.23
2017-10-20T01:45:15.012Z,2.40
2017-10-20T01:47:42.512Z,2.20
2017-10-20T01:50:10.308Z,2.20
2017-10-20T01:52:37.815Z,1.80
2017-10-20T01:55:05.319Z,2.07
2017-10-20T01:57:32.816Z,1.70
2017-10-20T02:00:00.323Z,2.30
2017-10-20T02:02:27.836Z,2.43
2017-10-20T02:04:55.332Z,2.20
2017-10-20T02:07:22.848Z,2.23
2017-10-20T02:09:50.360Z,2.53
2017-10-20T02:12:18.875Z,1.90
2017-10-20T02:14:47.136Z,2.20
2017-10-20T02:17:15.544Z,2.60
2017-10-20T02:19:43.042Z,2.17
2017-10-20T02:22:10.564Z,2.50
2017-10-20T02:24:38.078Z,2.00
2017-10-20T02:27:05.751Z,2.03
2017-10-20T02:29:33.243Z,2.90
2017-10-20T02:32:00.745Z,2.10
2017-10-20T02:34:29.031Z,2.20
2017-10-20T02:36:57.305Z,2.30
2017-10-20T02:39:25.582Z,2.30
2017-10-20T02:41:53.852Z,2.53
2017-10-20T02:44:22.111Z,2.40
2017-10-20T02:46:50.379Z,2.47
2017-10-20T02:49:17.898Z,2.13
2017-10-20T02:51:45.416Z,2.53
2017-10-20T02:54:12.921Z,2.20
2017-10-20T02:56:40.550Z,2.03
2017-10-20T02:59:08.075Z,2.27
2017-10-20T03:01:36.467Z,2.23
2017-10-20T03:04:03.995Z,1.80
2017-10-20T03:06:32.270Z,2.30
2017-10-20T03:09:00.536Z,1.87
2017-10-20T03:14:49.249Z,2.20
2017-10-20T03:17:16.904Z,2.10
2017-10-20T03:19:44.550Z,2.40
2017-10-20T03:22:12.051Z,2.37
2017-10-20T03:24:39.655Z,2.10
2017-10-20T03:27:07.291Z,2.43
2017-10-20T03:29:34.987Z,2.40
2017-10-20T03:32:02.478Z,2.40
2017-10-20T03:34:30.098Z,2.17
2017-10-20T03:36:57.591Z,2.47
2017-10-20T03:39:25.095Z,2.40
2017-10-20T03:41:53.351Z,2.30
2017-10-20T03:44:21.751Z,2.70
2017-10-20T03:46:49.411Z,2.20
2017-10-20T03:49:16.959Z,2.30
2017-10-20T03:51:44.538Z,2.20
2017-10-20T03:54:12.027Z,2.07
2017-10-20T03:56:39.549Z,2.23
2017-10-20T03:59:07.038Z,2.07
2017-10-20T04:01:34.607Z,2.47
2017-10-20T04:04:02.100Z,2.40
2017-10-20T04:06:29.687Z,2.00
2017-10-20T04:08:57.178Z,2.00
2017-10-20T04:11:25.443Z,2.37
2017-10-20T04:13:52.939Z,2.00
2017-10-20T04:16:20.440Z,2.10
2017-10-20T04:18:47.971Z,2.27
2017-10-20T04:21:15.467Z,2.27
2017-10-20T04:23:43.730Z,2.10
2017-10-20T04:26:11.222Z,2.03
2017-10-20T04:28:39.492Z,2.10
2017-10-20T04:31:07.767Z,2.20
2017-10-20T04:33:36.156Z,1.83
2017-10-20T04:36:03.819Z,1.97
2017-10-20T04:38:31.480Z,2.00
2017-10-20T04:40:58.982Z,2.17
2017-10-20T04:43:26.590Z,2.27
2017-10-20T04:45:54.087Z,2.03
2017-10-20T04:48:21.714Z,2.07
2017-10-20T04:50:49.212Z,1.97
2017-10-20T04:53:17.483Z,1.80
2017-10-20T04:55:46.932Z,2.50
2017-10-20T04:58:14.423Z,1.87
2017-10-20T05:00:41.919Z,1.97
2017-10-20T05:03:10.191Z,2.00
2017-10-20T05:05:38.460Z,2.07
2017-10-20T05:08:06.854Z,2.10
2017-10-20T05:10:34.357Z,2.13
2017-10-20T05:13:01.959Z,2.27
2017-10-20T05:15:29.635Z,2.20
2017-10-20T05:17:57.141Z,2.60
2017-10-20T05:20:24.669Z,2.10
2017-10-20T05:22:52.399Z,2.00
2017-10-20T05:25:19.924Z,2.23
2017-10-20T05:27:48.183Z,2.50
2017-10-20T05:30:16.467Z,3.40
2017-10-20T05:32:44.895Z,3.37
2017-10-20T05:35:12.559Z,3.07
2017-10-20T05:37:40.199Z,3.50
2017-10-20T05:40:07.690Z,2.37
2017-10-20T05:42:35.235Z,2.70
2017-10-20T05:45:02.768Z,2.50
2017-10-20T05:47:30.427Z,3.17
2017-10-20T05:49:57.942Z,3.03
2017-10-20T05:52:26.207Z,2.03
2017-10-20T05:54:53.807Z,2.57
2017-10-20T05:57:21.306Z,2.80
2017-10-20T05:59:48.802Z,2.50
2017-10-20T06:02:17.072Z,2.60
2017-10-20T06:04:45.471Z,3.30
2017-10-20T06:07:12.984Z,4.37
2017-10-20T06:09:41.409Z,3.50
2017-10-20T06:12:08.935Z,3.23
2017-10-20T06:14:37.203Z,3.50
2017-10-20T06:17:05.615Z,2.73
2017-10-20T06:19:33.114Z,3.10
2017-10-20T06:22:00.648Z,2.83
2017-10-20T06:24:28.203Z,2.87
2017-10-20T06:26:55.828Z,3.10
2017-10-20T06:29:23.491Z,2.80
2017-10-20T06:31:51.002Z,2.60
2017-10-20T06:34:18.499Z,4.33
2017-10-20T06:36:45.995Z,3.57
2017-10-20T06:39:13.531Z,4.90
2017-10-20T06:41:41.041Z,3.33
2017-10-20T06:44:09.451Z,3.07
2017-10-20T06:46:36.947Z,3.90
2017-10-20T06:49:04.451Z,3.43
2017-10-20T06:51:32.060Z,3.00
2017-10-20T06:53:59.771Z,2.97
2017-10-20T06:56:27.271Z,2.83
2017-10-20T06:58:54.894Z,2.60
2017-10-20T07:01:22.391Z,3.30
2017-10-20T07:03:50.003Z,3.13
2017-10-20T07:06:17.515Z,3.30
2017-10-20T07:08:45.918Z,2.80
2017-10-20T07:11:13.432Z,2.80
2017-10-20T07:13:41.523Z,2.70
2017-10-20T07:16:09.927Z,2.93
2017-10-20T07:18:39.912Z,3.10
2017-10-20T07:21:08.176Z,2.60
2017-10-20T07:23:36.439Z,3.17
2017-10-20T07:26:04.044Z,2.40
2017-10-20T07:28:31.568Z,2.70
2017-10-20T07:30:59.289Z,2.80
2017-10-20T07:33:26.827Z,2.73
2017-10-20T07:35:54.474Z,2.73
2017-10-20T07:38:22.157Z,3.07
2017-10-20T07:40:49.666Z,2.60
2017-10-20T07:43:17.239Z,2.80
2017-10-20T07:45:44.736Z,2.63
2017-10-20T07:48:12.366Z,2.40
2017-10-20T07:50:40.019Z,2.47
2017-10-20T07:53:07.700Z,2.77
2017-10-20T07:55:35.327Z,3.00
2017-10-20T07:58:02.834Z,2.40
2017-10-20T08:00:30.443Z,3.07
2017-10-20T08:02:57.947Z,2.80
2017-10-20T08:05:25.568Z,2.33
2017-10-20T08:07:53.067Z,2.60
2017-10-20T08:10:20.567Z,3.00
2017-10-20T08:12:48.338Z,2.50
2017-10-20T08:15:15.834Z,2.87
2017-10-20T08:17:43.434Z,2.30
2017-10-20T08:20:10.927Z,2.70
2017-10-20T08:22:38.435Z,2.70
2017-10-20T08:25:06.823Z,2.30
2017-10-20T08:27:34.496Z,2.67
2017-10-20T08:30:01.999Z,2.60
2017-10-20T08:32:30.278Z,2.30
2017-10-20T08:34:58.642Z,2.97
2017-10-20T08:37:27.662Z,2.50
2017-10-20T08:39:55.339Z,2.30
2017-10-20T08:42:23.306Z,2.53
2017-10-20T08:44:50.891Z,2.77
2017-10-20T08:47:18.416Z,2.37
2017-10-20T08:49:45.907Z,2.73
2017-10-20T08:52:13.956Z,2.50
2017-10-20T08:54:41.600Z,2.40
2017-10-20T08:57:09.254Z,2.37
2017-10-20T08:59:36.759Z,2.50
2017-10-20T09:02:04.257Z,2.33
2017-10-20T09:04:31.755Z,2.23
2017-10-20T09:06:59.276Z,2.73
2017-10-20T09:09:26.775Z,2.07
2017-10-20T09:11:54.275Z,2.70
2017-10-20T09:14:22.544Z,2.40
2017-10-20T09:16:50.808Z,2.50
2017-10-20T09:19:19.072Z,2.00
2017-10-20T09:21:46.575Z,2.47
2017-10-20T09:24:14.139Z,2.30
2017-10-20T09:26:41.646Z,2.40
2017-10-20T09:29:09.939Z,2.10
2017-10-20T09:31:37.523Z,2.10
2017-10-20T09:34:05.159Z,2.30
2017-10-20T09:36:32.655Z,2.83
2017-10-20T09:39:00.164Z,2.53
2017-10-20T09:41:27.759Z,2.30
2017-10-20T09:43:55.263Z,2.30
2017-10-20T09:46:23.547Z,2.50
2017-10-20T09:48:51.112Z,2.33
2017-10-20T09:51:18.875Z,2.60
2017-10-20T09:53:46.639Z,2.33
2017-10-20T09:56:14.147Z,2.17
2017-10-20T09:58:41.648Z,2.27
2017-10-20T10:01:09.402Z,2.60
2017-10-20T10:03:36.903Z,2.43
2017-10-20T10:06:04.492Z,2.30
2017-10-20T10:08:31.987Z,2.97
2017-10-20T10:10:59.539Z,2.23
2017-10-20T10:13:27.108Z,1.90
2017-10-20T10:15:54.622Z,2.20
2017-10-20T10:18:22.911Z,1.90
2017-10-20T10:20:50.503Z,2.80
2017-10-20T10:23:18.028Z,2.17
2017-10-20T10:25:45.527Z,2.23
2017-10-20T10:28:13.040Z,2.30
2017-10-20T10:30:40.535Z,2.03
2017-10-20T10:33:08.163Z,2.33
2017-10-20T10:35:35.823Z,2.60
2017-10-20T10:38:03.352Z,2.33
2017-10-20T10:40:31.659Z,2.40
2017-10-20T10:42:59.231Z,2.27
2017-10-20T10:45:26.854Z,2.30
2017-10-20T10:47:54.371Z,2.53
2017-10-20T10:50:22.631Z,2.20
2017-10-20T10:52:50.123Z,2.50
2017-10-20T10:55:18.518Z,2.43
2017-10-20T10:57:46.236Z,2.30
2017-10-20T11:00:13.751Z,2.23
2017-10-20T11:02:41.247Z,2.20
2017-10-20T11:05:08.770Z,2.60
2017-10-20T11:07:48.080Z,1.93
2017-10-20T11:10:28.544Z,2.20
2017-10-20T11:13:01.491Z,2.03
2017-10-20T11:15:29.911Z,2.20
2017-10-20T11:17:57.549Z,1.90
2017-10-20T11:20:25.072Z,2.40
2017-10-20T11:22:53.351Z,2.07
2017-10-20T11:25:20.876Z,1.97
2017-10-20T11:27:48.417Z,2.40
2017-10-20T11:30:15.931Z,2.03
2017-10-20T11:32:44.198Z,2.57
2017-10-20T11:35:12.498Z,2.50
2017-10-20T11:37:40.028Z,2.47
2017-10-20T11:40:07.524Z,2.43
2017-10-20T11:42:35.031Z,2.37
2017-10-20T11:45:02.639Z,2.10
2017-10-20T11:47:30.165Z,2.57
2017-10-20T11:49:57.933Z,2.37
2017-10-20T11:52:25.475Z,2.40
2017-10-20T11:54:53.739Z,2.20
2017-10-20T11:57:22.022Z,2.30
2017-10-20T11:59:49.590Z,2.40
2017-10-20T12:02:17.112Z,2.20
2017-10-20T12:04:44.613Z,2.00
2017-10-20T12:07:12.198Z,2.40
2017-10-20T12:09:39.697Z,2.37
2017-10-20T12:12:07.268Z,2.20
2017-10-20T12:14:34.940Z,2.07
2017-10-20T12:17:02.444Z,1.90
2017-10-20T12:19:30.036Z,1.93
2017-10-20T12:21:57.541Z,1.97
2017-10-20T12:24:25.159Z,1.77
2017-10-20T12:26:52.811Z,2.10
2017-10-20T12:29:20.477Z,2.00
2017-10-20T12:31:47.982Z,2.10
2017-10-20T12:34:15.499Z,1.80
2017-10-20T12:36:43.060Z,2.00
2017-10-20T12:39:10.587Z,1.90
2017-10-20T12:41:38.147Z,2.23
2017-10-20T12:44:05.681Z,2.10
2017-10-20T12:46:34.088Z,2.10
2017-10-20T12:49:01.592Z,2.17
2017-10-20T12:51:29.858Z,1.90
2017-10-20T12:53:58.297Z,2.10
2017-10-20T12:56:25.800Z,2.03
2017-10-20T12:58:53.399Z,2.20
2017-10-20T13:01:20.904Z,2.10
2017-10-20T13:03:48.511Z,2.10
2017-10-20T13:06:16.027Z,1.87
2017-10-20T13:08:44.449Z,1.73
2017-10-20T13:11:11.967Z,2.17
2017-10-20T13:13:40.238Z,1.80
2017-10-20T13:16:08.519Z,2.00
2017-10-20T13:18:37.019Z,1.90
2017-10-20T13:21:04.780Z,2.10
2017-10-20T13:23:32.482Z,1.70
2017-10-20T13:26:00.025Z,1.83
2017-10-20T13:28:27.519Z,2.20
2017-10-20T13:30:56.521Z,1.83
2017-10-20T13:33:24.793Z,2.17
2017-10-20T13:35:53.063Z,2.17
2017-10-20T13:38:21.322Z,1.60
2017-10-20T13:40:48.826Z,1.50
2017-10-20T13:43:16.388Z,2.00
2017-10-20T13:45:43.894Z,2.17
2017-10-20T13:48:11.577Z,1.40
2017-10-20T13:50:39.078Z,2.00
2017-10-20T13:53:06.640Z,1.77
2017-10-20T13:55:34.153Z,1.80
2017-10-20T13:58:01.668Z,1.87
2017-10-20T14:00:29.187Z,2.00
2017-10-20T14:02:56.835Z,2.10
2017-10-20T14:05:24.360Z,2.30
2017-10-20T14:07:52.703Z,2.60
2017-10-20T14:10:20.199Z,2.00
2017-10-20T14:12:47.695Z,2.50
2017-10-20T14:15:15.325Z,2.00
2017-10-20T14:17:42.947Z,2.70
2017-10-20T14:20:10.453Z,2.20
2017-10-20T14:22:37.968Z,2.40
2017-10-20T14:25:06.243Z,1.93
2017-10-20T14:27:33.764Z,2.40
2017-10-20T14:30:01.581Z,2.37
2017-10-20T14:32:29.093Z,2.00
2017-10-20T14:34:56.620Z,2.27
2017-10-20T14:37:24.263Z,3.10
2017-10-20T14:39:51.908Z,2.37
2017-10-20T14:42:19.412Z,2.00
2017-10-20T14:44:46.941Z,2.57
2017-10-20T14:47:14.455Z,2.67
2017-10-20T14:49:42.146Z,2.93
2017-10-20T14:52:09.782Z,2.57
2017-10-20T14:54:37.673Z,2.67
2017-10-20T14:57:05.215Z,2.53
2017-10-20T14:59:32.978Z,2.27
2017-10-20T15:02:00.510Z,2.70
2017-10-20T15:04:28.786Z,2.83
2017-10-20T15:06:57.069Z,2.80
2017-10-20T15:09:24.575Z,2.80
2017-10-20T15:11:52.099Z,3.03
2017-10-20T15:14:19.702Z,3.13
2017-10-20T15:16:48.936Z,2.67
2017-10-20T15:19:16.431Z,2.63
2017-10-20T15:21:43.988Z,3.40
2017-10-20T15:24:11.489Z,2.83
2017-10-20T15:26:39.881Z,3.00
2017-10-20T15:29:07.487Z,3.40
2017-10-20T15:31:36.495Z,3.60
2017-10-20T15:34:03.998Z,3.40
2017-10-20T15:36:31.495Z,3.30
2017-10-20T15:38:59.847Z,3.10
2017-10-20T15:41:27.351Z,3.33
2017-10-20T15:43:55.635Z,3.53
2017-10-20T15:46:23.138Z,3.00
2017-10-20T15:48:50.691Z,3.47
2017-10-20T15:51:18.311Z,3.30
2017-10-20T15:53:45.843Z,2.87
2017-10-20T15:56:14.513Z,2.93
2017-10-20T15:58:42.939Z,3.20
2017-10-20T16:01:10.435Z,3.30
2017-10-20T16:03:38.463Z,3.37
2017-10-20T16:06:06.103Z,3.30
2017-10-20T16:08:34.494Z,3.40
2017-10-20T16:11:02.002Z,3.47
2017-10-20T16:13:29.519Z,3.67
2017-10-20T16:15:57.172Z,3.93
2017-10-20T16:18:24.667Z,2.77
2017-10-20T16:20:52.952Z,3.40
2017-10-20T16:23:21.219Z,3.00
2017-10-20T16:25:49.019Z,3.60
2017-10-20T16:28:16.671Z,3.10
2017-10-20T16:30:44.187Z,3.47
2017-10-20T16:33:12.606Z,4.27
2017-10-20T16:35:40.123Z,3.30
2017-10-20T16:38:08.387Z,3.63
2017-10-20T16:40:35.923Z,3.20
2017-10-20T16:43:03.467Z,3.70
2017-10-20T16:45:31.047Z,3.13
2017-10-20T16:47:58.535Z,3.03
2017-10-20T16:50:26.227Z,3.13
2017-10-20T16:52:53.732Z,3.57
2017-10-20T16:55:21.275Z,3.33
2017-10-20T16:57:48.991Z,3.43
2017-10-20T17:00:16.648Z,2.90
2017-10-20T17:02:44.205Z,3.30
2017-10-20T17:05:11.970Z,3.17
2017-10-20T17:07:39.603Z,3.07
2017-10-20T17:10:07.099Z,3.03
2017-10-20T17:12:34.624Z,3.43
2017-10-20T17:15:02.127Z,2.70
2017-10-20T17:17:29.687Z,3.17
2017-10-20T17:19:57.276Z,3.30
2017-10-20T17:22:24.821Z,2.60
2017-10-20T17:24:53.079Z,3.40
2017-10-20T17:27:20.700Z,2.90
2017-10-20T17:29:48.214Z,3.50
2017-10-20T17:32:16.503Z,3.17
2017-10-20T17:34:44.893Z,3.10
2017-10-20T17:37:12.435Z,3.37
2017-10-20T17:39:40.707Z,3.20
2017-10-20T17:42:08.995Z,3.67
2017-10-20T17:44:36.550Z,3.10
2017-10-20T17:47:04.221Z,3.30
2017-10-20T17:49:31.751Z,3.37
2017-10-20T17:52:00.152Z,4.37
2017-10-20T17:54:27.677Z,3.90
2017-10-20T17:56:55.950Z,3.57
2017-10-20T17:59:24.227Z,3.63
2017-10-20T18:01:52.513Z,4.10
2017-10-20T18:04:20.064Z,4.80
2017-10-20T18:06:47.564Z,5.30
2017-10-20T18:09:15.083Z,4.40
2017-10-20T18:11:42.703Z,5.10
2017-10-20T18:14:10.309Z,5.33
2017-10-20T18:16:37.808Z,4.40
2017-10-20T18:19:05.433Z,4.23
2017-10-20T18:21:32.927Z,5.17
2017-10-20T18:24:00.423Z,4.80
2017-10-20T18:26:27.943Z,4.17
2017-10-20T18:28:55.639Z,4.60
2017-10-20T18:31:23.166Z,4.30
2017-10-20T18:33:51.569Z,4.73
2017-10-20T18:36:19.231Z,4.87
2017-10-20T18:38:46.743Z,4.77
2017-10-20T18:41:15.031Z,4.23
2017-10-20T18:43:43.298Z,4.20
2017-10-20T18:46:11.864Z,3.77
2017-10-20T18:48:39.368Z,4.50
2017-10-20T18:51:07.023Z,3.93
2017-10-20T18:53:34.529Z,3.57
2017-10-20T18:56:02.971Z,3.87
2017-10-20T18:58:30.652Z,4.10
2017-10-20T19:00:58.146Z,4.43
2017-10-20T19:03:26.456Z,4.10
2017-10-20T19:05:53.982Z,3.40
2017-10-20T19:08:21.515Z,3.77
2017-10-20T19:10:49.130Z,4.70
2017-10-20T19:13:16.654Z,3.97
2017-10-20T19:15:44.915Z,4.33
2017-10-20T19:18:13.216Z,3.93
2017-10-20T19:20:40.716Z,4.20
2017-10-20T19:23:08.443Z,3.60
2017-10-20T19:25:36.098Z,3.87
2017-10-20T19:28:03.756Z,3.90
2017-10-20T19:30:31.467Z,3.53
2017-10-20T19:32:59.755Z,3.90
2017-10-20T19:35:28.154Z,3.80
2017-10-20T19:37:55.817Z,3.97
2017-10-20T19:40:23.334Z,4.20
2017-10-20T19:42:50.937Z,3.60
2017-10-20T19:45:18.430Z,3.90
2017-10-20T19:47:45.943Z,3.70
2017-10-20T19:50:13.699Z,4.03
2017-10-20T19:52:41.219Z,3.93
2017-10-20T19:55:09.479Z,4.00
2017-10-20T19:57:37.068Z,3.70
2017-10-20T20:00:04.743Z,4.00
2017-10-20T20:02:32.483Z,4.17
2017-10-20T20:05:00.756Z,4.77
2017-10-20T20:07:29.038Z,4.13
2017-10-20T20:09:57.439Z,3.73
2017-10-20T20:12:24.958Z,3.70
2017-10-20T20:14:53.767Z,3.47
2017-10-20T20:17:21.427Z,3.93
2017-10-20T20:19:48.939Z,3.70
2017-10-20T20:22:16.476Z,4.27
2017-10-20T20:24:43.983Z,3.40
2017-10-20T20:27:11.603Z,3.90
2017-10-20T20:29:39.107Z,3.60
2017-10-20T20:32:07.094Z,4.10
2017-10-20T20:34:34.644Z,3.30
2017-10-20T20:37:02.140Z,3.33
2017-10-20T20:39:29.635Z,3.37
2017-10-20T20:41:57.140Z,3.63
2017-10-20T20:44:24.675Z,3.53
2017-10-20T20:46:52.235Z,3.60
2017-10-20T20:49:19.759Z,3.50
2017-10-20T20:51:47.267Z,3.57
2017-10-20T20:54:14.775Z,3.53
2017-10-20T20:56:42.343Z,3.57
2017-10-20T20:59:09.843Z,3.70
2017-10-20T21:01:38.122Z,3.57
2017-10-20T21:04:06.388Z,4.00
2017-10-20T21:06:33.983Z,3.90
2017-10-20T21:09:01.519Z,3.77
2017-10-20T21:11:29.994Z,3.73
2017-10-20T21:13:58.395Z,3.00
2017-10-20T21:16:26.060Z,3.10
2017-10-20T21:18:54.352Z,3.70
2017-10-20T21:21:21.863Z,3.70
2017-10-20T21:23:49.390Z,3.73
2017-10-20T21:26:16.876Z,3.57
2017-10-20T21:28:44.375Z,3.30
2017-10-20T21:31:12.090Z,3.40
2017-10-20T21:33:40.493Z,3.70
2017-10-20T21:36:08.139Z,3.60
2017-10-20T21:38:35.663Z,3.57
2017-10-20T21:41:03.256Z,3.00
2017-10-20T21:43:30.767Z,2.97
2017-10-20T21:45:58.275Z,2.90
2017-10-20T21:48:26.044Z,3.03
2017-10-20T21:50:54.504Z,3.50
2017-10-20T21:53:22.027Z,3.17
2017-10-20T21:55:49.520Z,3.30
2017-10-20T21:58:17.043Z,3.00
2017-10-20T22:00:44.739Z,3.43
2017-10-20T22:03:12.299Z,3.23
2017-10-20T22:05:39.871Z,2.97
2017-10-20T22:08:07.392Z,3.17
2017-10-20T22:10:34.982Z,2.90
2017-10-20T22:13:02.503Z,3.27
2017-10-20T22:15:30.882Z,3.20
2017-10-20T22:17:58.543Z,3.57
2017-10-20T22:20:26.039Z,2.67
2017-10-20T22:22:53.569Z,3.70
2017-10-20T22:25:21.129Z,3.40
2017-10-20T22:27:48.640Z,3.57
2017-10-20T22:30:17.047Z,3.60
2017-10-20T22:32:44.575Z,3.67
2017-10-20T22:35:12.951Z,3.27
2017-10-20T22:37:40.450Z,3.20
2017-10-20T22:40:07.947Z,3.40
2017-10-20T22:42:35.539Z,3.30
2017-10-20T22:45:03.195Z,3.03
2017-10-20T22:47:30.687Z,3.60
2017-10-20T22:49:58.315Z,3.20
2017-10-20T22:52:25.974Z,3.20
2017-10-20T22:54:53.644Z,3.20
2017-10-20T22:57:21.302Z,3.17
2017-10-20T22:59:48.797Z,3.23
2017-10-20T23:02:16.398Z,2.73
2017-10-20T23:04:44.064Z,3.00
2017-10-20T23:07:11.576Z,2.90
2017-10-20T23:09:39.857Z,3.27
2017-10-20T23:12:08.268Z,3.50
2017-10-20T23:14:35.933Z,3.43
2017-10-20T23:17:03.583Z,2.93
2017-10-20T23:19:31.083Z,3.20
2017-10-20T23:21:58.583Z,2.60
2017-10-20T23:24:26.158Z,2.77
2017-10-20T23:26:53.768Z,3.43
2017-10-20T23:29:22.907Z,3.27
2017-10-20T23:31:50.560Z,2.63
2017-10-20T23:34:18.058Z,3.43
2017-10-20T23:36:45.560Z,3.20
2017-10-20T23:39:13.151Z,3.10
2017-10-20T23:41:40.680Z,3.20
2017-10-20T23:44:08.236Z,2.83
2017-10-20T23:46:35.755Z,3.00
2017-10-20T23:49:03.407Z,2.87
2017-10-20T23:51:30.907Z,3.30
2017-10-20T23:53:58.428Z,2.90
2017-10-20T23:56:25.939Z,3.80
2017-10-20T23:58:54.370Z,2.70
